Relevés horaires Laegern (Suisse)


Relevés horaires à Laegern - Jeudi 09 Sept. 2021
Heure UTC1 Température [°C] Vent [km/h] Hum. [%] Pres.4 [hPa] Visi. [Km] Nébu. [octa] Préc.5 [mm] Cond.
2m. Res. Ros. Dir.2 Vit. Moy. Raf.3
23:00 15.3 15.3 11.4 SSO 0.0 -- 24.1 78 850(-0.2/3h) -- -- -- --
22:00 15.5 15.5 11.4 SO 0.0 -- 27.8 77 850(0.2/3h) -- -- -- --
21:00 15.4 15.4 11.4 SSO 0.0 -- 37.0 77 850(0.6/3h) -- -- -- --
20:00 15.4 15.4 11.3 SSO 0.0 -- 29.6 77 850(0.8/3h) -- -- -- --
19:00 15.3 15.3 11.4 SSO 0.0 -- 37.0 78 850(0.6/3h) -- -- -- --
18:00 15.6 15.6 10.9 SO 0.0 -- 37.0 74 850(0.0/3h) -- -- -- --
17:00 16.6 16.6 10.1 SO 0.0 -- 33.3 65 850(-0.1/3h) -- -- -- --
16:00 18.7 18.7 9.9 SO 0.0 -- 29.6 57 850(-0.4/3h) -- -- -- --
15:00 20.1 20.1 11.5 SSO 0.0 -- 37.0 58 850(-0.7/3h) -- -- -- --
14:00 20.7 20.7 10.2 S 0.0 -- 35.2 51 850(-0.6/3h) -- -- -- --
13:00 20.4 20.4 10.9 S 0.0 -- 37.0 54 850(-0.5/3h) -- -- -- --
12:00 19.8 19.8 12.0 SSO 0.0 -- 37.0 61 850(0.0/3h) -- -- -- --
11:00 19.0 19.0 11.8 SSO 0.0 -- 37.0 63 850(0.5/3h) -- -- -- --
10:00 18.4 18.4 13.3 S 0.0 -- 25.9 72 850(1.3/3h) -- -- -- --
09:00 17.2 17.2 12.1 S 0.0 -- 29.6 72 850(1.1/3h) -- -- -- --
08:00 17.1 17.1 11.6 S 0.0 -- 22.2 70 850(0.8/3h) -- -- -- --
07:00 16.9 16.9 10.7 S 0.0 -- 29.6 67 850(0.4/3h) -- -- -- --
06:00 16.9 16.9 10.4 S 0.0 -- 31.5 66 850(0.1/3h) -- -- -- --
05:00 15.5 15.5 11.7 SSE 0.0 -- 29.6 78 850(-0.1/3h) -- -- -- --
04:00 15.4 15.4 12.0 SSE 0.0 -- 29.6 80 850(-0.3/3h) -- -- -- --
03:00 16.5 16.5 12.5 S 0.0 -- 27.8 77 850(-0.3/3h) -- -- -- --
02:00 17.9 17.9 12.4 S 0.0 -- 25.9 70 850(-0.2/3h) -- -- -- --
01:00 18.2 18.2 12.6 SSO 0.0 -- 27.8 70 850(-0.1/3h) -- -- -- --
00:00 18.5 18.5 10.7 S 0.0 -- 25.9 60 850(0.3/3h) -- -- -- --

1 Coordinated Universal Time. Actuellement il est 03:00 locale et 01:00 UTC.

2 Le vent souffle depuis la direction indiquée vers la direction oposée.

3 Les rafales max. sont disponible 40 min après l'heure du relevé.

4 Pour les stations d'altitude (plus de 600m) le géopotentiel du niveau le plus proche de la pression obligatoire est indiqué.

5 Les stations disposant d'un diffuseur peuvent indiquer "trace". Cela signifie que des précipitations ont touchés le sol mais que la quantité est inférieure à 0.1 mm.

Copyright

Les données affichées sur cette page sont la propriété exclusive de Météo Suisse.

Récapitulatif de la journée
Température [°C] Vent [km/h] Ensoleillement4 [h] Precipitations totale5 [mm] Pression [Hpa]
Min1 Max.2 Moy.3 Max. Min Max.
15.3 21.0 0 37.0 9 h 6 min 0 850.0 850.0

1 Température minimale relevée entre 18:00 UTC la veille et 18:00 UTC le jour donné.

2 Température maximale relevée entre 06:00 UTC le jour donné et 06:00 UTC le lendemain.

3 Vent moyen de la journée basé sur les relevés horaires.

4 Ensoleillement en heures relevé entre 06:00 UTC la veille et 06:00 UTC le jour donné.

5 Précipitations totales tombées entre 06:00 UTC la jour donné et 06:00 UTC le lendemain.

Graphiques horaires